Flight Track Log - Related Links

Times and Time Zones

All times are in EDT time to prevent confusion due to time zone crossing. See the DAL3784 flight status page for this flight to view local times or setup timezone preferences in your user account.

Time Position Orientation Groundspeed Altitude Reporting Facility
EDT Latitude Longitude Course Direction KTS MPH feet Rate Location/Type
Tue 05:53:59 PM 44.2111 -88.3492 100° East 244 281 7,000  Level Minneapolis Center
Tue 05:54:00 PM 44.1852 -88.1139 100° East  Level FlightAware Approximate
Tue 05:55:00 PM 44.1681 -87.9783 100° East  Level FlightAware Approximate
Tue 05:55:01 PM 44.1964 -88.2308 100° East 286 329 9,700  Level Minneapolis Center
Tue 05:56:00 PM 44.1491 -87.8434 101° East  Level FlightAware Approximate
Tue 05:56:02 PM 44.1794 -88.0872 99° East 362 417 11,400  Level Minneapolis Center
Tue 05:57:00 PM 44.1274 -87.7094 109° East  Level FlightAware Approximate
Tue 05:57:04 PM 44.1603 -87.9258 99° East 417 480 12,600  Level Minneapolis Center
Tue 05:58:00 PM 44.0862 -87.5890 125° Southeast  Level FlightAware Approximate
Tue 05:58:06 PM 44.1386 -87.7569 100° East 440 506 14,500  Level Minneapolis Center
Tue 05:59:07 PM 44.0944 -87.5972 111° Southeast 444 511 16,100 1,512 Climbing Minneapolis Center
Tue 06:00:09 PM 44.0183 -87.4214 121° Southeast 453 521 17,600 1,210 Climbing Minneapolis Center
Tue 06:01:11 PM 43.9514 -87.2658 121° Southeast 466 536 18,600 1,073 Climbing Minneapolis Center
Tue 06:02:12 PM 43.8864 -87.1139 121° Southeast 474 545 19,800 1,073 Climbing Minneapolis Center
Tue 06:03:14 PM 43.8167 -86.9567 122° Southeast 478 550 20,800 968 Climbing Minneapolis Center
Tue 06:04:16 PM 43.7472 -86.7969 121° Southeast 483 556 21,800 976 Climbing Minneapolis Center
Tue 06:05:17 PM 43.6764 -86.6361 121° Southeast 489 563 22,800 976 Climbing Minneapolis Center
Tue 06:06:19 PM 43.6053 -86.4744 121° Southeast 491 565 23,800 968 Climbing Minneapolis Center
Tue 06:07:21 PM 43.5331 -86.3119 121° Southeast 495 570 24,800 1,073 Climbing Minneapolis Center
Tue 06:08:22 PM 43.4694 -86.1011 113° Southeast 498 573 26,000 1,105 Climbing Minneapolis Center
Tue 06:08:37 PM 43.4611 -86.0661 108° East 500 575 26,200 779 Climbing Chicago Center
Tue 06:09:39 PM 43.4156 -85.8808 109° East 504 580 27,000 440 Climbing Chicago Center
Tue 06:10:26 PM 43.3781 -85.7322 109° East 505 581 27,000  Level Minneapolis Center
Tue 06:10:41 PM 43.3686 -85.6944 109° East 509 586 27,000 -156 Level Chicago Center
Tue 06:11:43 PM 43.3217 -85.5075 109° East 513 590 26,800 -1,523 Descending Chicago Center
Tue 06:12:51 PM 43.2611 -85.2733 109° East 525 604 23,700 -1,781 Descending Cleveland Center
Tue 06:13:51 PM 43.2189 -85.0822 107° East 525 604 23,000 -350 Descending Cleveland Center
Tue 06:14:51 PM 43.1778 -84.8967 107° East 515 593 23,000  Level Cleveland Center
Tue 06:15:51 PM 43.1219 -84.7194 113° Southeast 509 586 23,000  Level Cleveland Center
Tue 06:16:54 PM 43.0764 -84.5439 110° East 511 588 23,000 -1,200 Level Chicago Center
Tue 06:17:51 PM 43.0194 -84.3575 113° Southeast 503 579 20,600 -2,410 Descending Cleveland Center
Tue 06:18:51 PM 42.9744 -84.2069 112° Southeast 496 571 18,300 -2,400 Descending Cleveland Center
Tue 06:19:41 PM 42.9328 -84.0628 111° Southeast 438 504 16,200 -2,541 Descending Cleveland Center
Tue 06:20:42 PM 42.8914 -83.9131 111° Southeast 401 461 13,600 -1,969 Descending Cleveland Center
Tue 06:21:49 PM 42.8456 -83.7692 113° Southeast 354 407 12,000 -1,349 Descending Cleveland Center
Tue 06:22:51 PM 42.7847 -83.7067 143° Southeast 340 391 10,700 -1,309 Descending Cleveland Center
Tue 06:23:39 PM 42.7250 -83.6725 157° South 245 282 9,600 -900 Descending Cleveland Center
Tue 06:24:51 PM 42.6594 -83.6297 154° Southeast 262 302 8,900 -1,266 Descending Cleveland Center
Tue 06:25:47 PM 42.6097 -83.5483 130° Southeast 262 302 6,900 -1,450 Descending Cleveland Center
Tue 06:26:51 PM 42.5614 -83.4728 131° Southeast 256 295 6,000 -443 Descending Cleveland Center
Tue 06:27:49 PM 42.5153 -83.4003 131° Southeast 260 299 6,000 -202 Level Cleveland Center
Tue 06:28:50 PM 42.4708 -83.3389 134° Southeast 196 226 5,600 -931 Descending Cleveland Center
Tue 06:29:45 PM 42.4322 -83.2981 142° Southeast 189 217 4,200 -1,527 Descending Cleveland Center

Login

Don't have an account? Register now (free) for customized features, flight alerts, and more!